Time;durP1;ratioP1;P1;durP2;ratioP2;P2;SDS_P1;SDS_P2;PMS_P1;PMS_P2;Temp;Humidity;BMP_temperature;BMP_pressure;BME280_temperature;BME280_humidity;BME280_pressure;Samples;Min_cycle;Max_cycle;Signal;HPM_P1;HPM_P2
2022/03/25 00:00:45;;;;;;;24.77;16.60;;;7.50;82.50;;;;;;4995438;28;20022;-76
2022/03/25 00:03:11;;;;;;;25.63;15.93;;;7.50;83.20;;;;;;5002163;28;20027;-77
2022/03/25 00:05:36;;;;;;;25.48;16.08;;;7.40;83.60;;;;;;4995427;28;20026;-77
2022/03/25 00:08:02;;;;;;;25.02;17.23;;;7.40;84.70;;;;;;4993825;28;20030;-76
2022/03/25 00:10:28;;;;;;;27.63;16.45;;;7.40;86.10;;;;;;4995212;28;20026;-77
2022/03/25 00:12:54;;;;;;;31.23;18.65;;;7.40;86.50;;;;;;4993431;28;20398;-75
2022/03/25 00:15:19;;;;;;;23.70;17.77;;;7.40;86.80;;;;;;4994498;28;20018;-76
2022/03/25 00:17:45;;;;;;;26.73;18.02;;;7.40;87.00;;;;;;4992228;28;20511;-76
2022/03/25 00:20:11;;;;;;;24.42;17.92;;;7.40;87.30;;;;;;4993827;28;20105;-77
2022/03/25 00:22:36;;;;;;;26.02;18.10;;;7.40;87.50;;;;;;4994330;28;20395;-76
2022/03/25 00:25:05;;;;;;;28.58;19.35;;;7.30;88.00;;;;;;4994903;28;20038;-75
2022/03/25 00:27:33;;;;;;;29.77;18.92;;;7.30;88.80;;;;;;4994278;28;20081;-76
2022/03/25 00:29:59;;;;;;;34.53;20.73;;;7.20;89.40;;;;;;4992966;28;20482;-76
2022/03/25 00:32:25;;;;;;;32.50;24.00;;;7.10;90.00;;;;;;4992294;28;20081;-76
2022/03/25 00:34:51;;;;;;;34.35;23.08;;;7.10;90.40;;;;;;4993922;28;20108;-75
2022/03/25 00:37:17;;;;;;;32.92;25.38;;;7.10;90.50;;;;;;4994101;28;20033;-78
2022/03/25 00:39:42;;;;;;;33.97;24.02;;;7.10;90.80;;;;;;4992480;28;20029;-75
2022/03/25 00:42:09;;;;;;;35.15;22.60;;;7.10;90.90;;;;;;4993599;28;20018;-77
2022/03/25 00:44:35;;;;;;;34.40;23.10;;;7.10;91.10;;;;;;4992767;28;20030;-75
2022/03/25 00:47:02;;;;;;;34.42;22.70;;;7.10;91.20;;;;;;4993642;28;20117;-76
2022/03/25 00:49:27;;;;;;;32.88;22.13;;;6.90;91.40;;;;;;4993469;28;20022;-75
2022/03/25 00:51:54;;;;;;;36.88;21.30;;;6.80;91.80;;;;;;4993674;28;20035;-76
2022/03/25 00:54:20;;;;;;;28.45;20.33;;;6.90;92.20;;;;;;4991932;28;20117;-75
2022/03/25 00:56:45;;;;;;;30.38;19.73;;;6.90;92.30;;;;;;4993704;28;20058;-77
2022/03/25 00:59:11;;;;;;;27.10;18.40;;;6.80;92.80;;;;;;4994253;28;20057;-75
2022/03/25 01:01:38;;;;;;;29.15;18.58;;;6.80;93.60;;;;;;4993573;28;20454;-75
2022/03/25 01:04:04;;;;;;;28.70;18.27;;;6.90;93.90;;;;;;4993852;28;20022;-76
2022/03/25 01:06:29;;;;;;;23.40;16.05;;;6.90;94.80;;;;;;4993621;28;20022;-75
2022/03/25 01:08:55;;;;;;;31.85;16.35;;;7.00;95.70;;;;;;4993626;28;20556;-76
2022/03/25 01:11:21;;;;;;;24.88;16.75;;;7.10;96.50;;;;;;4993308;28;20023;-76
2022/03/25 01:13:46;;;;;;;29.15;17.35;;;7.10;97.00;;;;;;4993708;28;20501;-76
2022/03/25 01:16:12;;;;;;;25.80;17.33;;;7.00;97.10;;;;;;4993407;28;20022;-76
2022/03/25 01:18:38;;;;;;;26.17;18.17;;;6.90;97.50;;;;;;4993584;28;20026;-76
2022/03/25 01:21:04;;;;;;;30.85;18.58;;;6.90;98.10;;;;;;4993309;28;20081;-76
2022/03/25 01:23:30;;;;;;;25.90;17.90;;;6.90;98.10;;;;;;4991878;28;20066;-76
2022/03/25 01:25:56;;;;;;;29.13;18.50;;;6.80;98.40;;;;;;4993279;28;20034;-74
2022/03/25 01:28:23;;;;;;;30.13;18.05;;;6.80;98.70;;;;;;4993441;28;20025;-77
2022/03/25 01:30:49;;;;;;;29.23;18.63;;;6.70;98.80;;;;;;4993020;28;20026;-76
2022/03/25 01:33:15;;;;;;;26.85;18.02;;;6.60;99.40;;;;;;4993041;28;20261;-75
2022/03/25 01:35:41;;;;;;;23.58;17.35;;;6.60;99.70;;;;;;4991830;28;20023;-75
2022/03/25 01:38:07;;;;;;;37.83;18.50;;;6.50;99.90;;;;;;4992940;28;20026;-76
2022/03/25 01:40:33;;;;;;;24.50;17.15;;;6.50;99.90;;;;;;4992875;28;20101;-75
2022/03/25 01:42:59;;;;;;;27.00;18.95;;;6.40;99.90;;;;;;4992004;28;20522;-75
2022/03/25 01:45:32;;;;;;;26.17;18.38;;;6.40;99.90;;;;;;4993124;28;20027;-75
2022/03/25 01:47:58;;;;;;;25.13;17.90;;;6.40;99.90;;;;;;4992988;28;20025;-75
2022/03/25 01:50:25;;;;;;;25.02;17.70;;;6.40;99.90;;;;;;4992845;28;20026;-76
2022/03/25 01:52:51;;;;;;;27.13;18.55;;;6.30;99.90;;;;;;4992443;28;20037;-75
2022/03/25 01:55:21;;;;;;;36.78;18.92;;;6.20;99.90;;;;;;4992697;28;20442;-75
2022/03/25 01:57:49;;;;;;;27.92;17.23;;;6.20;99.90;;;;;;4993554;28;20026;-74
2022/03/25 02:00:16;;;;;;;26.15;18.23;;;6.30;99.90;;;;;;4991211;28;20019;-75
2022/03/25 02:02:43;;;;;;;31.73;17.42;;;6.20;99.90;;;;;;4991155;28;20084;-74
2022/03/25 02:05:09;;;;;;;24.63;17.88;;;6.20;99.90;;;;;;4992478;28;20029;-75
2022/03/25 02:07:35;;;;;;;26.50;18.25;;;6.20;99.90;;;;;;4992620;28;20200;-74
2022/03/25 02:10:00;;;;;;;23.65;17.42;;;6.20;99.90;;;;;;4992766;28;20022;-74
2022/03/25 02:12:26;;;;;;;25.13;18.88;;;6.10;99.90;;;;;;4992106;28;20526;-77
2022/03/25 02:14:51;;;;;;;26.63;17.27;;;6.10;99.90;;;;;;4991129;28;20399;-75
2022/03/25 02:17:17;;;;;;;33.15;19.63;;;6.00;99.90;;;;;;4992202;28;20044;-74
2022/03/25 02:19:42;;;;;;;23.70;17.10;;;6.00;99.90;;;;;;4992575;28;20033;-74
2022/03/25 02:22:08;;;;;;;28.17;17.92;;;6.00;99.90;;;;;;4992237;28;20449;-76
2022/03/25 02:24:34;;;;;;;27.83;18.05;;;6.00;99.90;;;;;;4990952;28;20026;-75
2022/03/25 02:27:00;;;;;;;26.52;18.10;;;6.10;99.90;;;;;;4992363;28;20026;-74
2022/03/25 02:29:26;;;;;;;25.85;16.75;;;6.10;99.90;;;;;;4991137;28;20406;-76
2022/03/25 02:31:52;;;;;;;30.65;18.25;;;5.90;99.90;;;;;;4992200;28;20027;-76
2022/03/25 02:34:17;;;;;;;27.42;16.27;;;5.80;99.90;;;;;;4991944;28;20031;-76
2022/03/25 02:36:45;;;;;;;27.63;17.75;;;6.00;99.90;;;;;;4992322;28;20053;-74
2022/03/25 02:39:14;;;;;;;23.33;16.95;;;5.90;99.90;;;;;;4992056;28;20104;-74
2022/03/25 02:41:40;;;;;;;26.10;16.92;;;5.90;99.90;;;;;;4993802;28;20493;-75
2022/03/25 02:44:06;;;;;;;25.65;17.30;;;5.90;99.90;;;;;;4994441;28;20033;-76
2022/03/25 02:46:32;;;;;;;22.58;16.50;;;5.80;99.90;;;;;;4995995;28;20030;-76
2022/03/25 02:48:57;;;;;;;24.63;16.75;;;5.80;99.90;;;;;;4995784;28;20052;-76
2022/03/25 02:51:23;;;;;;;23.08;16.88;;;5.80;99.90;;;;;;4994356;28;20019;-75
2022/03/25 02:53:49;;;;;;;29.00;18.10;;;5.80;99.90;;;;;;4995573;28;20097;-75
2022/03/25 02:56:15;;;;;;;26.75;16.48;;;5.70;99.90;;;;;;4995731;28;20022;-75
2022/03/25 02:58:40;;;;;;;24.75;17.33;;;5.70;99.90;;;;;;4994553;28;20029;-75
2022/03/25 03:01:06;;;;;;;25.13;17.30;;;5.60;99.90;;;;;;4995084;28;20031;-75
2022/03/25 03:03:35;;;;;;;22.90;16.48;;;5.60;99.90;;;;;;4993924;28;20109;-75
2022/03/25 03:06:01;;;;;;;25.88;17.30;;;5.60;99.90;;;;;;4995318;28;20500;-75
2022/03/25 03:08:27;;;;;;;25.02;17.63;;;5.60;99.90;;;;;;4995082;28;20066;-75
2022/03/25 03:10:53;;;;;;;22.88;16.83;;;5.50;99.90;;;;;;4995166;28;20069;-76
2022/03/25 03:13:20;;;;;;;31.35;17.67;;;5.40;99.90;;;;;;4995107;28;20041;-74
2022/03/25 03:15:47;;;;;;;24.20;16.98;;;5.40;99.90;;;;;;4995066;28;20409;-74
2022/03/25 03:18:13;;;;;;;24.80;17.45;;;5.30;99.90;;;;;;4993743;28;20077;-75
2022/03/25 03:20:38;;;;;;;28.02;18.55;;;5.30;99.90;;;;;;4993455;28;20508;-74
2022/03/25 03:23:05;;;;;;;21.73;16.73;;;5.40;99.90;;;;;;4994588;28;20398;-75
2022/03/25 03:25:31;;;;;;;26.55;16.08;;;5.40;99.90;;;;;;4994738;28;20019;-75
2022/03/25 03:27:56;;;;;;;23.08;16.83;;;5.40;99.90;;;;;;4994855;28;20044;-75
2022/03/25 03:30:22;;;;;;;22.17;16.73;;;5.30;99.90;;;;;;4994608;28;20023;-74
2022/03/25 03:32:54;;;;;;;28.40;18.45;;;5.30;99.90;;;;;;4994152;28;20494;-75
2022/03/25 03:35:20;;;;;;;24.40;18.27;;;5.20;99.90;;;;;;4994686;28;20310;-75
2022/03/25 03:37:46;;;;;;;29.27;17.25;;;5.10;99.90;;;;;;4994504;28;20028;-75
2022/03/25 03:40:14;;;;;;;24.70;16.83;;;5.20;99.90;;;;;;4994496;28;20027;-75
2022/03/25 03:42:40;;;;;;;25.23;18.35;;;5.10;99.90;;;;;;4993229;28;20509;-75
2022/03/25 03:45:08;;;;;;;25.02;18.33;;;5.20;99.90;;;;;;4994685;28;20338;-75
2022/03/25 03:47:37;;;;;;;27.42;17.17;;;5.20;99.90;;;;;;4994784;28;20097;-75
2022/03/25 03:50:05;;;;;;;26.63;18.58;;;5.20;99.90;;;;;;4994715;28;20101;-75
2022/03/25 03:52:30;;;;;;;26.05;17.70;;;5.20;99.90;;;;;;4994372;28;20033;-74
2022/03/25 03:54:56;;;;;;;30.92;19.38;;;5.20;99.90;;;;;;4994628;28;20023;-76
2022/03/25 03:57:22;;;;;;;28.00;16.48;;;5.20;99.90;;;;;;4994498;28;20022;-74
2022/03/25 03:59:47;;;;;;;23.08;16.75;;;5.30;99.90;;;;;;4994378;28;20034;-75
2022/03/25 04:02:13;;;;;;;23.58;16.55;;;5.20;99.90;;;;;;4993105;28;20517;-75
2022/03/25 04:04:38;;;;;;;23.02;17.83;;;5.20;99.90;;;;;;4994106;28;20037;-75
2022/03/25 04:07:04;;;;;;;28.90;17.70;;;5.10;99.90;;;;;;4994120;28;20218;-75
2022/03/25 04:09:30;;;;;;;24.23;17.83;;;5.00;99.90;;;;;;4994106;28;20018;-76
2022/03/25 04:11:55;;;;;;;25.42;17.60;;;5.00;99.90;;;;;;4993814;28;20360;-75
2022/03/25 04:14:21;;;;;;;23.25;17.48;;;5.00;99.90;;;;;;4994200;28;20037;-75
2022/03/25 04:16:47;;;;;;;26.73;17.50;;;5.10;99.90;;;;;;4994061;28;20038;-75
2022/03/25 04:19:14;;;;;;;26.33;18.08;;;5.00;99.90;;;;;;4992655;28;20026;-73
2022/03/25 04:21:40;;;;;;;28.13;16.50;;;5.00;99.90;;;;;;4993631;28;20440;-75
2022/03/25 04:24:06;;;;;;;31.67;18.27;;;4.90;99.90;;;;;;4993780;28;20386;-75
2022/03/25 04:26:32;;;;;;;35.45;17.55;;;4.90;99.90;;;;;;4993644;28;20100;-75
2022/03/25 04:28:57;;;;;;;23.45;16.38;;;5.00;99.90;;;;;;4993816;28;20523;-74
2022/03/25 04:31:23;;;;;;;21.88;16.17;;;5.10;99.90;;;;;;4993519;28;20160;-75
2022/03/25 04:33:48;;;;;;;25.75;16.73;;;5.20;99.90;;;;;;4994052;28;20045;-75
2022/03/25 04:36:14;;;;;;;26.27;16.73;;;5.10;99.90;;;;;;4993496;28;20061;-76
2022/03/25 04:38:41;;;;;;;29.70;18.23;;;5.10;99.90;;;;;;4993658;28;20102;-76
2022/03/25 04:41:09;;;;;;;30.98;17.05;;;4.90;99.90;;;;;;4993289;28;20371;-75
2022/03/25 04:43:38;;;;;;;25.48;17.42;;;4.90;99.90;;;;;;4993364;28;20491;-75
2022/03/25 04:46:05;;;;;;;28.48;18.10;;;4.80;99.90;;;;;;4993270;28;20487;-76
2022/03/25 04:48:32;;;;;;;25.95;19.10;;;4.80;99.90;;;;;;4993364;28;20054;-75
2022/03/25 04:50:58;;;;;;;27.55;18.35;;;4.70;99.90;;;;;;4991950;28;20116;-76
2022/03/25 04:53:25;;;;;;;29.50;17.85;;;4.60;99.90;;;;;;4993344;28;20443;-75
2022/03/25 04:55:52;;;;;;;27.95;16.63;;;4.60;99.90;;;;;;4993497;28;20490;-75
2022/03/25 04:58:17;;;;;;;29.17;18.23;;;4.60;99.90;;;;;;4992116;28;20037;-76
2022/03/25 05:00:43;;;;;;;26.88;17.85;;;4.70;99.90;;;;;;4993219;28;20026;-75
2022/03/25 05:03:08;;;;;;;28.20;18.95;;;4.60;99.90;;;;;;4991484;28;20073;-74
2022/03/25 05:05:34;;;;;;;23.77;17.55;;;4.60;99.90;;;;;;4992785;28;20025;-75
2022/03/25 05:08:00;;;;;;;26.40;17.45;;;4.60;99.90;;;;;;4991879;28;20023;-75
2022/03/25 05:10:27;;;;;;;27.55;18.00;;;4.60;99.90;;;;;;4992972;28;20105;-74
2022/03/25 05:12:53;;;;;;;28.42;17.48;;;4.60;99.90;;;;;;4993179;28;20548;-75
2022/03/25 05:15:19;;;;;;;27.13;18.17;;;4.60;99.90;;;;;;4993192;28;20022;-75
2022/03/25 05:17:51;;;;;;;35.65;18.98;;;4.50;99.90;;;;;;4994206;28;20483;-74
2022/03/25 05:20:18;;;;;;;24.55;17.27;;;4.50;99.90;;;;;;4993011;28;20022;-75
2022/03/25 05:22:45;;;;;;;33.25;18.77;;;4.60;99.90;;;;;;4992827;28;20030;-75
2022/03/25 05:25:11;;;;;;;26.83;17.38;;;4.50;99.90;;;;;;4991230;28;20027;-75
2022/03/25 05:27:48;;;;;;;24.90;18.05;;;4.60;99.90;;;;;;4991782;28;20033;-75
2022/03/25 05:30:14;;;;;;;25.55;17.40;;;4.70;99.90;;;;;;4993247;28;20022;-75
2022/03/25 05:32:41;;;;;;;30.35;18.20;;;4.70;99.90;;;;;;4997091;28;20077;-76
2022/03/25 05:35:07;;;;;;;39.40;17.98;;;4.80;99.90;;;;;;4993188;28;20026;-74
2022/03/25 05:37:34;;;;;;;27.70;18.20;;;4.90;99.90;;;;;;4991560;28;20110;-75
2022/03/25 05:40:00;;;;;;;27.42;18.58;;;5.00;99.90;;;;;;4992602;28;20030;-76
2022/03/25 05:42:26;;;;;;;23.95;16.88;;;5.00;99.90;;;;;;4992384;28;20026;-76
2022/03/25 05:44:52;;;;;;;27.27;17.63;;;5.00;99.90;;;;;;4992908;28;20450;-75
2022/03/25 05:47:17;;;;;;;25.95;17.42;;;5.10;99.90;;;;;;4992997;28;20027;-76
2022/03/25 05:49:43;;;;;;;25.40;17.52;;;5.20;99.90;;;;;;4992672;28;20085;-75
2022/03/25 05:52:08;;;;;;;21.98;17.30;;;5.30;99.90;;;;;;4992771;28;20092;-75
2022/03/25 05:54:34;;;;;;;25.45;17.50;;;5.60;99.90;;;;;;4992784;28;20080;-76
2022/03/25 05:56:59;;;;;;;25.92;17.75;;;5.70;99.90;;;;;;4992638;28;20120;-75
2022/03/25 05:59:25;;;;;;;24.42;16.45;;;5.90;99.90;;;;;;4992558;28;20034;-75
2022/03/25 06:01:50;;;;;;;27.92;17.83;;;5.90;99.90;;;;;;4992652;28;20104;-75
2022/03/25 06:04:16;;;;;;;21.63;16.55;;;5.90;99.90;;;;;;4992770;28;20034;-75
2022/03/25 06:06:41;;;;;;;25.92;17.70;;;5.90;99.90;;;;;;4992302;28;20029;-74
2022/03/25 06:09:07;;;;;;;33.22;18.23;;;5.80;99.90;;;;;;4991240;28;20399;-75
2022/03/25 06:11:32;;;;;;;27.85;18.65;;;5.90;99.90;;;;;;4992197;28;20054;-75
2022/03/25 06:13:58;;;;;;;34.38;17.90;;;5.90;99.90;;;;;;4991059;28;20030;-75
2022/03/25 06:16:23;;;;;;;28.35;18.92;;;6.10;99.90;;;;;;4994191;28;20060;-75
2022/03/25 06:18:49;;;;;;;27.63;16.67;;;6.10;99.90;;;;;;4996142;28;20030;-76
2022/03/25 06:21:16;;;;;;;33.80;18.80;;;6.10;99.90;;;;;;4995456;28;20113;-75
2022/03/25 06:23:42;;;;;;;27.15;18.58;;;6.10;99.90;;;;;;4994984;28;20051;-75
2022/03/25 06:26:08;;;;;;;27.30;18.13;;;6.20;99.90;;;;;;4994997;28;20491;-76
2022/03/25 06:28:35;;;;;;;30.02;17.10;;;6.40;99.90;;;;;;4996164;28;20483;-76
2022/03/25 06:31:01;;;;;;;25.42;18.50;;;6.60;99.90;;;;;;4996045;28;20093;-76
2022/03/25 06:33:26;;;;;;;28.33;18.27;;;6.60;99.90;;;;;;4994726;28;20061;-76
2022/03/25 06:35:52;;;;;;;25.20;18.05;;;6.60;99.90;;;;;;4995956;28;20034;-74
2022/03/25 06:38:18;;;;;;;24.20;17.13;;;6.70;99.90;;;;;;4996222;28;20037;-75
2022/03/25 06:40:44;;;;;;;26.88;17.58;;;6.80;99.90;;;;;;4995081;28;20034;-75
2022/03/25 06:43:10;;;;;;;30.23;17.40;;;6.80;99.90;;;;;;4995723;28;20502;-76
2022/03/25 06:45:35;;;;;;;26.73;17.83;;;6.80;99.90;;;;;;4994946;28;20065;-76
2022/03/25 06:48:01;;;;;;;37.47;18.90;;;6.90;99.90;;;;;;4995724;28;20077;-76
2022/03/25 06:50:27;;;;;;;31.23;18.52;;;6.80;99.90;;;;;;4995805;28;20030;-75
2022/03/25 06:52:53;;;;;;;27.35;18.35;;;7.00;99.90;;;;;;4995539;28;20029;-75
2022/03/25 06:55:20;;;;;;;29.27;20.13;;;7.00;99.90;;;;;;4995639;28;20097;-75
2022/03/25 06:57:47;;;;;;;29.23;18.17;;;7.10;99.90;;;;;;4996034;28;20030;-76
2022/03/25 07:00:13;;;;;;;28.60;18.70;;;7.30;99.90;;;;;;4994393;28;20117;-75
2022/03/25 07:02:43;;;;;;;30.02;19.73;;;7.50;99.70;;;;;;4995235;28;20459;-75
2022/03/25 07:05:13;;;;;;;29.33;18.55;;;7.60;99.30;;;;;;4995314;28;20036;-76
2022/03/25 07:07:40;;;;;;;31.17;19.13;;;7.80;99.20;;;;;;4995045;28;20092;-75
2022/03/25 07:10:09;;;;;;;33.22;18.02;;;7.80;99.20;;;;;;4994229;28;20430;-76
2022/03/25 07:12:38;;;;;;;30.15;18.40;;;7.90;98.60;;;;;;4994315;28;20023;-76
2022/03/25 07:15:05;;;;;;;35.75;20.52;;;8.00;98.30;;;;;;4995277;28;20022;-76
2022/03/25 07:17:31;;;;;;;26.33;19.77;;;8.00;98.30;;;;;;4995194;28;20030;-73
2022/03/25 07:19:57;;;;;;;30.98;19.20;;;8.10;98.10;;;;;;4996086;28;20411;-75
2022/03/25 07:22:22;;;;;;;31.60;18.58;;;8.20;98.00;;;;;;5008077;28;20022;-75
2022/03/25 07:24:48;;;;;;;23.33;16.75;;;8.30;97.80;;;;;;5010436;28;20077;-75
2022/03/25 07:27:13;;;;;;;24.92;17.48;;;8.30;97.60;;;;;;5008942;28;20368;-75
2022/03/25 07:29:39;;;;;;;30.77;19.85;;;8.50;97.00;;;;;;5008422;28;20078;-74
2022/03/25 07:32:05;;;;;;;27.63;18.70;;;8.60;96.90;;;;;;5005015;28;20152;-75
2022/03/25 07:34:31;;;;;;;30.58;18.48;;;8.60;96.40;;;;;;4993972;28;20129;-76
2022/03/25 07:36:57;;;;;;;28.98;18.05;;;8.40;96.70;;;;;;4994978;28;20534;-75
2022/03/25 07:39:23;;;;;;;25.33;18.42;;;8.50;96.90;;;;;;4994819;28;20070;-76
2022/03/25 07:41:49;;;;;;;28.90;18.02;;;8.80;96.30;;;;;;4993567;28;20105;-75
2022/03/25 07:44:14;;;;;;;24.17;18.02;;;9.00;95.90;;;;;;4994908;28;20027;-75
2022/03/25 07:46:40;;;;;;;26.73;19.70;;;8.80;96.00;;;;;;4993890;28;20057;-75
2022/03/25 07:49:06;;;;;;;30.10;19.17;;;9.00;96.00;;;;;;4994630;28;20427;-75
2022/03/25 07:51:32;;;;;;;35.28;22.35;;;9.20;95.40;;;;;;4994696;28;20108;-76
2022/03/25 07:53:57;;;;;;;30.67;18.85;;;9.20;95.40;;;;;;4994468;28;20114;-75
2022/03/25 07:56:23;;;;;;;29.38;19.98;;;9.40;95.20;;;;;;4994489;28;20487;-75
2022/03/25 07:58:49;;;;;;;30.65;21.02;;;9.60;94.70;;;;;;4994583;28;20065;-76
2022/03/25 08:01:15;;;;;;;28.42;19.27;;;9.70;94.20;;;;;;4994513;28;20030;-75
2022/03/25 08:03:40;;;;;;;30.75;20.70;;;9.60;94.10;;;;;;4994283;28;20030;-75
2022/03/25 08:06:08;;;;;;;29.75;20.42;;;9.70;94.00;;;;;;4994674;28;20018;-75
2022/03/25 08:08:35;;;;;;;31.13;20.70;;;9.60;93.90;;;;;;4994417;28;20045;-75
2022/03/25 08:11:00;;;;;;;33.90;19.88;;;9.80;93.90;;;;;;4994206;28;20368;-75
2022/03/25 08:13:26;;;;;;;32.33;21.33;;;9.80;93.80;;;;;;4995257;28;20088;-76
2022/03/25 08:15:51;;;;;;;33.85;20.52;;;9.80;93.90;;;;;;4994700;28;20399;-74
2022/03/25 08:18:17;;;;;;;35.95;21.13;;;10.10;93.70;;;;;;4994986;28;20506;-75
2022/03/25 08:20:45;;;;;;;32.15;21.48;;;10.30;93.30;;;;;;4993355;28;20479;-74
2022/03/25 08:27:48;;;;;;;29.98;20.95;;;10.30;93.20;;;;;;4995643;28;20050;-75
2022/03/25 08:28:50;;;;;;;36.63;21.60;;;10.70;92.50;;;;;;4994727;28;20069;-76
2022/03/25 08:31:15;;;;;;;30.67;19.77;;;10.80;91.90;;;;;;4994836;28;20050;-74
2022/03/25 08:33:41;;;;;;;30.67;21.42;;;10.90;91.40;;;;;;4994082;28;20061;-76
2022/03/25 08:36:07;;;;;;;35.30;21.98;;;10.80;91.50;;;;;;4992698;28;20538;-76
2022/03/25 08:38:32;;;;;;;36.05;22.13;;;11.00;91.40;;;;;;4993385;28;20045;-76
2022/03/25 08:40:58;;;;;;;38.03;23.15;;;11.10;90.80;;;;;;4995132;28;20157;-76
2022/03/25 08:43:23;;;;;;;33.22;21.77;;;10.90;91.00;;;;;;4997698;28;20136;-75
2022/03/25 08:45:49;;;;;;;34.72;22.35;;;11.20;90.70;;;;;;4995619;28;20026;-76
2022/03/25 08:48:15;;;;;;;34.20;21.83;;;11.40;90.40;;;;;;4992967;28;20028;-75
2022/03/25 08:50:40;;;;;;;36.00;22.25;;;11.60;90.10;;;;;;4992598;28;20026;-75
2022/03/25 08:53:06;;;;;;;37.55;23.77;;;11.80;89.30;;;;;;4993988;28;20077;-75
2022/03/25 08:55:32;;;;;;;37.60;22.65;;;11.90;88.60;;;;;;4993750;28;20018;-76
2022/03/25 08:57:58;;;;;;;31.75;22.52;;;12.00;88.40;;;;;;4993439;28;20477;-75
2022/03/25 09:00:24;;;;;;;37.58;23.17;;;12.00;87.80;;;;;;4993741;28;20069;-76
2022/03/25 09:02:49;;;;;;;35.20;23.35;;;12.00;87.30;;;;;;4993471;28;20525;-76
2022/03/25 09:05:16;;;;;;;34.10;22.13;;;12.00;87.20;;;;;;4994075;28;20023;-76
2022/03/25 09:07:42;;;;;;;37.75;22.98;;;12.40;85.40;;;;;;4992314;28;20033;-77
2022/03/25 09:10:09;;;;;;;35.10;22.08;;;12.40;84.30;;;;;;4993519;28;20033;-75
2022/03/25 09:12:36;;;;;;;34.65;23.05;;;12.50;84.50;;;;;;4993414;28;20109;-75
2022/03/25 09:15:04;;;;;;;32.90;22.02;;;12.90;83.60;;;;;;4994325;28;20022;-74
2022/03/25 09:17:29;;;;;;;29.77;21.52;;;13.00;82.40;;;;;;4993525;28;20161;-76
2022/03/25 09:19:55;;;;;;;35.00;23.98;;;13.10;81.80;;;;;;4993645;28;20064;-75
2022/03/25 09:22:21;;;;;;;30.75;22.15;;;12.90;80.20;;;;;;5001708;28;20026;-74
2022/03/25 09:24:46;;;;;;;37.50;22.88;;;12.80;80.00;;;;;;5015648;28;20031;-75
2022/03/25 09:27:12;;;;;;;38.72;24.40;;;13.30;79.30;;;;;;5016792;28;20030;-74
2022/03/25 09:29:38;;;;;;;32.60;22.75;;;13.40;79.60;;;;;;5017466;28;20045;-74
2022/03/25 09:32:04;;;;;;;42.20;23.27;;;13.50;78.80;;;;;;5017080;28;20101;-74
2022/03/25 09:37:14;;;;;;;34.67;23.13;;;13.40;77.40;;;;;;5017329;28;20053;-73
2022/03/25 09:39:39;;;;;;;35.88;24.30;;;13.50;78.50;;;;;;5016555;28;20018;-72
2022/03/25 09:42:06;;;;;;;40.00;24.52;;;13.80;77.20;;;;;;5017257;28;20018;-75
2022/03/25 09:44:33;;;;;;;35.20;22.90;;;13.90;76.60;;;;;;5016583;28;20118;-73
2022/03/25 09:47:00;;;;;;;37.42;25.35;;;14.10;75.10;;;;;;5016508;28;20081;-74
2022/03/25 09:49:25;;;;;;;34.28;24.00;;;14.30;74.90;;;;;;5016723;28;20022;-73
2022/03/25 09:51:51;;;;;;;34.72;23.88;;;14.40;73.80;;;;;;5006021;28;20077;-74
2022/03/25 09:54:17;;;;;;;35.35;23.67;;;14.30;72.80;;;;;;5000378;28;20034;-76
2022/03/25 09:56:43;;;;;;;34.38;24.10;;;14.40;73.10;;;;;;4999125;28;20091;-77
2022/03/25 09:59:09;;;;;;;35.88;23.45;;;14.50;72.70;;;;;;5015860;28;20085;-74
2022/03/25 10:01:35;;;;;;;38.25;24.65;;;14.80;72.80;;;;;;5018939;28;20019;-75
2022/03/25 10:04:02;;;;;;;38.25;24.98;;;15.00;71.90;;;;;;5019163;28;20013;-74
2022/03/25 10:06:27;;;;;;;35.92;24.38;;;15.10;70.60;;;;;;5016824;28;20022;-75
2022/03/25 10:09:02;;;;;;;36.25;24.90;;;14.80;70.30;;;;;;5020084;28;20021;-75
2022/03/25 10:11:31;;;;;;;36.90;24.20;;;14.80;70.90;;;;;;5020419;28;20042;-75
2022/03/25 10:14:23;;;;;;;40.10;24.10;;;15.20;70.20;;;;;;5020677;28;20038;-73
2022/03/25 10:16:53;;;;;;;31.92;24.42;;;15.40;69.10;;;;;;5011972;28;20089;-75
2022/03/25 10:19:23;;;;;;;46.75;24.75;;;15.50;69.00;;;;;;5009909;28;20022;-75
2022/03/25 10:22:00;;;;;;;36.37;24.30;;;15.60;68.70;;;;;;5009658;28;20033;-73
2022/03/25 10:24:36;;;;;;;33.65;25.10;;;15.60;67.80;;;;;;5015887;28;20052;-74
2022/03/25 10:27:05;;;;;;;36.75;24.10;;;15.90;66.60;;;;;;5011172;28;20026;-75
2022/03/25 10:29:31;;;;;;;37.92;24.85;;;15.90;66.20;;;;;;5005607;28;20026;-76
2022/03/25 10:32:07;;;;;;;35.42;24.40;;;15.90;65.70;;;;;;5000573;28;20023;-75
2022/03/25 10:34:37;;;;;;;37.50;25.15;;;15.90;65.40;;;;;;4998597;28;20034;-76
2022/03/25 10:37:05;;;;;;;32.70;24.30;;;16.10;64.80;;;;;;4996328;28;20538;-75
2022/03/25 10:39:31;;;;;;;36.03;24.67;;;16.30;64.80;;;;;;4996347;28;20023;-76
2022/03/25 10:42:05;;;;;;;35.65;24.05;;;16.50;64.50;;;;;;4997226;28;20414;-75
2022/03/25 10:44:40;;;;;;;37.80;25.10;;;16.60;64.20;;;;;;4995685;28;20022;-75
2022/03/25 10:47:26;;;;;;;37.65;26.35;;;16.40;64.20;;;;;;4997017;28;20105;-76
2022/03/25 10:49:52;;;;;;;35.35;24.55;;;16.60;63.90;;;;;;4995545;28;20023;-76
2022/03/25 10:52:23;;;;;;;39.45;25.80;;;16.60;63.90;;;;;;4994941;28;20426;-76
2022/03/25 10:54:50;;;;;;;36.17;26.63;;;16.50;64.50;;;;;;4996502;28;20058;-75
2022/03/25 10:57:17;;;;;;;32.75;23.80;;;16.30;64.20;;;;;;4995864;28;20434;-76
2022/03/25 10:59:56;;;;;;;35.78;25.60;;;16.30;64.20;;;;;;4996188;28;20022;-75
2022/03/25 11:02:21;;;;;;;34.67;24.33;;;16.40;64.30;;;;;;4995280;28;20486;-75
2022/03/25 11:04:49;;;;;;;46.05;27.50;;;16.90;64.00;;;;;;4995836;28;20042;-75
2022/03/25 11:07:16;;;;;;;34.28;24.50;;;17.20;62.80;;;;;;4994461;28;20033;-74
2022/03/25 11:09:43;;;;;;;32.95;24.15;;;17.30;62.10;;;;;;4996096;28;20427;-76
2022/03/25 11:12:11;;;;;;;32.17;24.00;;;17.40;60.90;;;;;;4994262;28;20036;-76
2022/03/25 11:14:37;;;;;;;35.30;23.95;;;17.00;60.60;;;;;;4994409;28;20031;-76
2022/03/25 11:17:07;;;;;;;28.52;21.58;;;17.00;59.50;;;;;;4995292;28;20434;-75
2022/03/25 11:19:34;;;;;;;36.33;24.25;;;17.10;58.90;;;;;;4996693;28;20030;-75
2022/03/25 11:22:03;;;;;;;29.58;23.75;;;17.40;59.00;;;;;;4995141;28;20031;-75
2022/03/25 11:24:42;;;;;;;29.90;22.98;;;17.10;59.00;;;;;;4996597;28;20031;-75
2022/03/25 11:27:26;;;;;;;32.58;23.50;;;17.50;59.10;;;;;;4995837;28;20516;-75
2022/03/25 11:29:57;;;;;;;30.90;23.92;;;17.70;58.50;;;;;;4996434;28;20030;-76
2022/03/25 11:32:24;;;;;;;35.15;23.50;;;17.50;58.10;;;;;;4995278;28;20061;-75
2022/03/25 11:34:55;;;;;;;26.48;22.20;;;17.90;57.10;;;;;;4995447;28;20467;-75
2022/03/25 11:37:32;;;;;;;26.63;22.27;;;18.20;55.40;;;;;;4995335;28;20058;-76
2022/03/25 11:40:16;;;;;;;26.08;21.20;;;18.20;54.40;;;;;;4995212;28;20039;-75
2022/03/25 11:42:49;;;;;;;27.65;21.17;;;18.00;54.30;;;;;;4994594;28;20030;-75
2022/03/25 11:45:21;;;;;;;26.83;21.00;;;17.70;54.30;;;;;;4994675;28;20046;-76
2022/03/25 11:48:04;;;;;;;26.63;21.05;;;18.00;55.10;;;;;;4994398;28;20085;-75
2022/03/25 11:50:41;;;;;;;29.08;20.75;;;18.30;54.40;;;;;;4993361;28;20022;-76
2022/03/25 11:53:13;;;;;;;29.15;22.15;;;18.40;53.80;;;;;;4994930;28;20455;-75
2022/03/25 11:56:05;;;;;;;29.77;21.25;;;18.50;53.70;;;;;;4993486;28;20491;-75
2022/03/25 11:58:39;;;;;;;30.90;21.67;;;18.70;53.90;;;;;;4994815;28;20037;-76
2022/03/25 12:01:11;;;;;;;37.58;22.45;;;18.50;54.40;;;;;;4993482;28;20088;-76
2022/03/25 12:03:47;;;;;;;26.15;21.45;;;18.60;54.50;;;;;;4993432;28;20387;-75
2022/03/25 12:06:13;;;;;;;27.42;22.75;;;18.40;54.40;;;;;;4994644;28;20105;-75
2022/03/25 12:09:06;;;;;;;27.23;22.73;;;18.60;54.70;;;;;;4993694;28;20050;-75
2022/03/25 12:11:58;;;;;;;28.48;22.70;;;18.70;54.50;;;;;;4994181;28;20073;-75
2022/03/25 12:14:33;;;;;;;29.52;21.38;;;18.40;53.90;;;;;;4993283;28;20023;-75
2022/03/25 12:17:06;;;;;;;29.25;21.58;;;18.30;53.80;;;;;;4995073;28;20101;-76
2022/03/25 12:19:39;;;;;;;28.58;22.10;;;18.20;53.90;;;;;;4995035;28;20106;-75
2022/03/25 12:22:19;;;;;;;28.40;21.73;;;18.30;54.20;;;;;;4994407;28;20026;-74
2022/03/25 12:24:58;;;;;;;25.58;20.67;;;18.50;53.50;;;;;;4994118;28;20030;-75
2022/03/25 12:27:24;;;;;;;29.00;21.15;;;18.80;53.90;;;;;;4994511;28;20486;-77
2022/03/25 12:29:51;;;;;;;31.17;21.58;;;18.50;53.20;;;;;;4994508;28;20027;-76
2022/03/25 12:32:20;;;;;;;26.58;20.90;;;18.80;53.70;;;;;;4994442;28;20497;-76
2022/03/25 12:35:03;;;;;;;28.20;21.02;;;18.90;53.30;;;;;;4995916;28;20038;-76
2022/03/25 12:37:28;;;;;;;27.75;21.55;;;19.00;53.20;;;;;;4996111;28;20034;-76
2022/03/25 12:39:54;;;;;;;27.23;21.80;;;19.10;53.90;;;;;;4994492;28;20033;-76